sensor_id;sensor_type;location;lat;lon;timestamp;P1;durP1;ratioP1;P2;durP2;ratioP2
6209;SDS011;3138;52.550;13.148;2022-10-22T00:00:56;32.03;;;19.03;;
6209;SDS011;3138;52.550;13.148;2022-10-22T00:03:23;31.57;;;19.00;;
6209;SDS011;3138;52.550;13.148;2022-10-22T00:05:49;33.37;;;19.93;;
6209;SDS011;3138;52.550;13.148;2022-10-22T00:08:16;38.87;;;20.47;;
6209;SDS011;3138;52.550;13.148;2022-10-22T00:10:43;27.43;;;17.73;;
6209;SDS011;3138;52.550;13.148;2022-10-22T00:13:11;25.40;;;19.53;;
6209;SDS011;3138;52.550;13.148;2022-10-22T00:15:39;27.97;;;20.90;;
6209;SDS011;3138;52.550;13.148;2022-10-22T00:18:05;31.53;;;19.57;;
6209;SDS011;3138;52.550;13.148;2022-10-22T00:20:32;26.90;;;19.70;;
6209;SDS011;3138;52.550;13.148;2022-10-22T00:22:59;28.23;;;18.90;;
6209;SDS011;3138;52.550;13.148;2022-10-22T00:25:25;30.30;;;21.80;;
6209;SDS011;3138;52.550;13.148;2022-10-22T00:27:52;38.30;;;18.70;;
6209;SDS011;3138;52.550;13.148;2022-10-22T00:30:20;34.30;;;19.40;;
6209;SDS011;3138;52.550;13.148;2022-10-22T00:32:47;34.93;;;19.13;;
6209;SDS011;3138;52.550;13.148;2022-10-22T00:35:14;32.90;;;18.43;;
6209;SDS011;3138;52.550;13.148;2022-10-22T00:37:40;36.93;;;21.07;;
6209;SDS011;3138;52.550;13.148;2022-10-22T00:40:08;33.37;;;19.50;;
6209;SDS011;3138;52.550;13.148;2022-10-22T00:42:35;31.40;;;19.33;;
6209;SDS011;3138;52.550;13.148;2022-10-22T00:45:05;26.63;;;17.90;;
6209;SDS011;3138;52.550;13.148;2022-10-22T00:47:41;34.70;;;18.80;;
6209;SDS011;3138;52.550;13.148;2022-10-22T00:50:12;26.97;;;18.60;;
6209;SDS011;3138;52.550;13.148;2022-10-22T00:52:42;23.47;;;15.80;;
6209;SDS011;3138;52.550;13.148;2022-10-22T00:55:09;27.90;;;17.83;;
6209;SDS011;3138;52.550;13.148;2022-10-22T00:57:37;32.07;;;21.03;;
6209;SDS011;3138;52.550;13.148;2022-10-22T01:00:05;29.63;;;18.23;;
6209;SDS011;3138;52.550;13.148;2022-10-22T01:02:33;29.57;;;19.30;;
6209;SDS011;3138;52.550;13.148;2022-10-22T01:05:01;28.53;;;18.40;;
6209;SDS011;3138;52.550;13.148;2022-10-22T01:07:28;32.87;;;18.40;;
6209;SDS011;3138;52.550;13.148;2022-10-22T01:09:58;26.63;;;18.80;;
6209;SDS011;3138;52.550;13.148;2022-10-22T01:12:33;35.13;;;21.10;;
6209;SDS011;3138;52.550;13.148;2022-10-22T01:15:09;25.37;;;18.33;;
6209;SDS011;3138;52.550;13.148;2022-10-22T01:17:41;32.03;;;20.60;;
6209;SDS011;3138;52.550;13.148;2022-10-22T01:20:19;25.57;;;18.40;;
6209;SDS011;3138;52.550;13.148;2022-10-22T01:23:06;28.47;;;19.43;;
6209;SDS011;3138;52.550;13.148;2022-10-22T01:25:47;39.77;;;20.00;;
6209;SDS011;3138;52.550;13.148;2022-10-22T01:28:21;33.87;;;19.37;;
6209;SDS011;3138;52.550;13.148;2022-10-22T01:31:00;24.07;;;17.10;;
6209;SDS011;3138;52.550;13.148;2022-10-22T01:33:29;34.80;;;19.37;;
6209;SDS011;3138;52.550;13.148;2022-10-22T01:35:57;29.07;;;19.80;;
6209;SDS011;3138;52.550;13.148;2022-10-22T01:38:25;26.80;;;16.33;;
6209;SDS011;3138;52.550;13.148;2022-10-22T01:40:52;25.50;;;17.17;;
6209;SDS011;3138;52.550;13.148;2022-10-22T01:43:20;22.83;;;15.60;;
6209;SDS011;3138;52.550;13.148;2022-10-22T01:45:49;22.33;;;16.27;;
6209;SDS011;3138;52.550;13.148;2022-10-22T01:48:23;21.50;;;14.23;;
6209;SDS011;3138;52.550;13.148;2022-10-22T01:51:06;30.13;;;18.37;;
6209;SDS011;3138;52.550;13.148;2022-10-22T01:53:59;19.20;;;13.33;;
6209;SDS011;3138;52.550;13.148;2022-10-22T01:56:36;19.50;;;15.20;;
6209;SDS011;3138;52.550;13.148;2022-10-22T01:59:17;21.83;;;15.30;;
6209;SDS011;3138;52.550;13.148;2022-10-22T02:01:54;21.47;;;16.00;;
6209;SDS011;3138;52.550;13.148;2022-10-22T02:04:25;28.87;;;16.87;;
6209;SDS011;3138;52.550;13.148;2022-10-22T02:06:56;18.60;;;14.63;;
6209;SDS011;3138;52.550;13.148;2022-10-22T02:09:27;24.83;;;15.30;;
6209;SDS011;3138;52.550;13.148;2022-10-22T02:11:56;26.17;;;16.00;;
6209;SDS011;3138;52.550;13.148;2022-10-22T02:14:24;28.07;;;18.33;;
6209;SDS011;3138;52.550;13.148;2022-10-22T02:16:54;27.57;;;17.80;;
6209;SDS011;3138;52.550;13.148;2022-10-22T02:19:24;41.03;;;17.53;;
6209;SDS011;3138;52.550;13.148;2022-10-22T02:21:53;26.73;;;17.60;;
6209;SDS011;3138;52.550;13.148;2022-10-22T02:24:20;39.80;;;18.70;;
6209;SDS011;3138;52.550;13.148;2022-10-22T02:26:51;25.40;;;15.03;;
6209;SDS011;3138;52.550;13.148;2022-10-22T02:29:24;21.40;;;14.43;;
6209;SDS011;3138;52.550;13.148;2022-10-22T02:31:56;18.50;;;14.53;;
6209;SDS011;3138;52.550;13.148;2022-10-22T02:34:26;17.50;;;12.97;;
6209;SDS011;3138;52.550;13.148;2022-10-22T02:36:56;27.30;;;17.13;;
6209;SDS011;3138;52.550;13.148;2022-10-22T02:39:26;21.20;;;13.83;;
6209;SDS011;3138;52.550;13.148;2022-10-22T02:41:55;28.93;;;14.57;;
6209;SDS011;3138;52.550;13.148;2022-10-22T02:44:22;16.40;;;13.23;;
6209;SDS011;3138;52.550;13.148;2022-10-22T02:46:49;18.20;;;13.77;;
6209;SDS011;3138;52.550;13.148;2022-10-22T02:49:17;20.23;;;12.70;;
6209;SDS011;3138;52.550;13.148;2022-10-22T02:51:44;17.70;;;12.87;;
6209;SDS011;3138;52.550;13.148;2022-10-22T02:54:11;20.43;;;13.80;;
6209;SDS011;3138;52.550;13.148;2022-10-22T02:56:38;17.60;;;13.83;;
6209;SDS011;3138;52.550;13.148;2022-10-22T02:59:05;28.03;;;13.77;;
6209;SDS011;3138;52.550;13.148;2022-10-22T03:01:32;20.43;;;15.00;;
6209;SDS011;3138;52.550;13.148;2022-10-22T03:03:58;23.03;;;13.33;;
6209;SDS011;3138;52.550;13.148;2022-10-22T03:06:26;23.83;;;15.37;;
6209;SDS011;3138;52.550;13.148;2022-10-22T03:08:53;28.33;;;16.10;;
6209;SDS011;3138;52.550;13.148;2022-10-22T03:11:20;20.07;;;15.97;;
6209;SDS011;3138;52.550;13.148;2022-10-22T03:13:46;25.30;;;16.73;;
6209;SDS011;3138;52.550;13.148;2022-10-22T03:16:13;19.00;;;13.80;;
6209;SDS011;3138;52.550;13.148;2022-10-22T03:18:40;20.50;;;15.40;;
6209;SDS011;3138;52.550;13.148;2022-10-22T03:21:09;17.67;;;14.80;;
6209;SDS011;3138;52.550;13.148;2022-10-22T03:23:39;18.53;;;14.23;;
6209;SDS011;3138;52.550;13.148;2022-10-22T03:26:08;22.40;;;15.77;;
6209;SDS011;3138;52.550;13.148;2022-10-22T03:28:37;15.27;;;13.13;;
6209;SDS011;3138;52.550;13.148;2022-10-22T03:31:06;22.30;;;14.10;;
6209;SDS011;3138;52.550;13.148;2022-10-22T03:33:32;21.27;;;14.60;;
6209;SDS011;3138;52.550;13.148;2022-10-22T03:35:59;15.30;;;12.23;;
6209;SDS011;3138;52.550;13.148;2022-10-22T03:38:26;37.93;;;12.73;;
6209;SDS011;3138;52.550;13.148;2022-10-22T03:40:55;27.27;;;13.77;;
6209;SDS011;3138;52.550;13.148;2022-10-22T03:43:23;17.97;;;13.60;;
6209;SDS011;3138;52.550;13.148;2022-10-22T03:45:50;17.57;;;12.60;;
6209;SDS011;3138;52.550;13.148;2022-10-22T03:48:16;14.70;;;11.10;;
6209;SDS011;3138;52.550;13.148;2022-10-22T03:50:43;20.67;;;10.33;;
6209;SDS011;3138;52.550;13.148;2022-10-22T03:53:10;15.33;;;11.10;;
6209;SDS011;3138;52.550;13.148;2022-10-22T03:55:37;16.63;;;12.27;;
6209;SDS011;3138;52.550;13.148;2022-10-22T03:58:07;19.23;;;12.60;;
6209;SDS011;3138;52.550;13.148;2022-10-22T04:00:34;16.53;;;12.80;;
6209;SDS011;3138;52.550;13.148;2022-10-22T04:03:01;12.07;;;10.10;;
6209;SDS011;3138;52.550;13.148;2022-10-22T04:05:27;15.67;;;11.80;;
6209;SDS011;3138;52.550;13.148;2022-10-22T04:07:56;12.77;;;11.47;;
6209;SDS011;3138;52.550;13.148;2022-10-22T04:10:23;14.23;;;11.23;;
6209;SDS011;3138;52.550;13.148;2022-10-22T04:12:50;16.70;;;9.60;;
6209;SDS011;3138;52.550;13.148;2022-10-22T04:15:18;19.73;;;10.20;;
6209;SDS011;3138;52.550;13.148;2022-10-22T04:17:45;16.93;;;10.83;;
6209;SDS011;3138;52.550;13.148;2022-10-22T04:20:11;14.00;;;10.47;;
6209;SDS011;3138;52.550;13.148;2022-10-22T04:22:38;21.83;;;13.37;;
6209;SDS011;3138;52.550;13.148;2022-10-22T04:25:05;15.67;;;11.97;;
6209;SDS011;3138;52.550;13.148;2022-10-22T04:27:33;13.50;;;10.60;;
6209;SDS011;3138;52.550;13.148;2022-10-22T04:29:59;15.10;;;12.27;;
6209;SDS011;3138;52.550;13.148;2022-10-22T04:32:28;27.13;;;14.60;;
6209;SDS011;3138;52.550;13.148;2022-10-22T04:34:54;19.97;;;12.13;;
6209;SDS011;3138;52.550;13.148;2022-10-22T04:37:21;27.33;;;12.40;;
6209;SDS011;3138;52.550;13.148;2022-10-22T04:39:48;16.80;;;13.63;;
6209;SDS011;3138;52.550;13.148;2022-10-22T04:42:15;20.43;;;12.90;;
6209;SDS011;3138;52.550;13.148;2022-10-22T04:44:41;22.07;;;14.53;;
6209;SDS011;3138;52.550;13.148;2022-10-22T04:47:08;28.13;;;14.03;;
6209;SDS011;3138;52.550;13.148;2022-10-22T04:49:36;25.90;;;13.80;;
6209;SDS011;3138;52.550;13.148;2022-10-22T04:52:03;28.43;;;15.60;;
6209;SDS011;3138;52.550;13.148;2022-10-22T04:54:30;21.33;;;14.83;;
6209;SDS011;3138;52.550;13.148;2022-10-22T04:56:56;18.87;;;13.70;;
6209;SDS011;3138;52.550;13.148;2022-10-22T04:59:23;29.93;;;16.00;;
6209;SDS011;3138;52.550;13.148;2022-10-22T05:01:50;17.33;;;14.30;;
6209;SDS011;3138;52.550;13.148;2022-10-22T05:04:17;16.03;;;11.53;;
6209;SDS011;3138;52.550;13.148;2022-10-22T05:06:45;20.10;;;15.33;;
6209;SDS011;3138;52.550;13.148;2022-10-22T05:09:13;21.10;;;11.67;;
6209;SDS011;3138;52.550;13.148;2022-10-22T05:11:42;19.33;;;13.23;;
6209;SDS011;3138;52.550;13.148;2022-10-22T05:14:12;16.63;;;12.87;;
6209;SDS011;3138;52.550;13.148;2022-10-22T05:16:40;19.97;;;11.97;;
6209;SDS011;3138;52.550;13.148;2022-10-22T05:19:07;14.90;;;12.00;;
6209;SDS011;3138;52.550;13.148;2022-10-22T05:21:34;17.00;;;12.63;;
6209;SDS011;3138;52.550;13.148;2022-10-22T05:24:04;31.07;;;15.77;;
6209;SDS011;3138;52.550;13.148;2022-10-22T05:26:31;16.70;;;13.60;;
6209;SDS011;3138;52.550;13.148;2022-10-22T05:28:58;14.60;;;11.47;;
6209;SDS011;3138;52.550;13.148;2022-10-22T05:31:24;17.57;;;11.80;;
6209;SDS011;3138;52.550;13.148;2022-10-22T05:33:52;23.47;;;13.13;;
6209;SDS011;3138;52.550;13.148;2022-10-22T05:36:20;23.50;;;14.47;;
6209;SDS011;3138;52.550;13.148;2022-10-22T05:38:47;23.13;;;13.30;;
6209;SDS011;3138;52.550;13.148;2022-10-22T05:41:16;17.77;;;13.00;;
6209;SDS011;3138;52.550;13.148;2022-10-22T05:43:44;21.20;;;14.23;;
6209;SDS011;3138;52.550;13.148;2022-10-22T05:46:12;17.90;;;12.40;;
6209;SDS011;3138;52.550;13.148;2022-10-22T05:48:40;26.50;;;15.50;;
6209;SDS011;3138;52.550;13.148;2022-10-22T05:51:08;18.47;;;14.30;;
6209;SDS011;3138;52.550;13.148;2022-10-22T05:53:36;13.50;;;11.93;;
6209;SDS011;3138;52.550;13.148;2022-10-22T05:56:05;22.77;;;15.43;;
6209;SDS011;3138;52.550;13.148;2022-10-22T05:58:35;23.93;;;14.90;;
6209;SDS011;3138;52.550;13.148;2022-10-22T06:01:02;21.03;;;14.43;;
6209;SDS011;3138;52.550;13.148;2022-10-22T06:03:30;23.10;;;15.40;;
6209;SDS011;3138;52.550;13.148;2022-10-22T06:05:58;22.93;;;16.20;;
6209;SDS011;3138;52.550;13.148;2022-10-22T06:08:29;22.67;;;15.27;;
6209;SDS011;3138;52.550;13.148;2022-10-22T06:10:56;26.30;;;16.77;;
6209;SDS011;3138;52.550;13.148;2022-10-22T06:13:23;29.53;;;17.40;;
6209;SDS011;3138;52.550;13.148;2022-10-22T06:15:51;21.47;;;14.73;;
6209;SDS011;3138;52.550;13.148;2022-10-22T06:18:17;25.57;;;16.57;;
6209;SDS011;3138;52.550;13.148;2022-10-22T06:20:44;20.20;;;14.53;;
6209;SDS011;3138;52.550;13.148;2022-10-22T06:23:12;21.10;;;13.67;;
6209;SDS011;3138;52.550;13.148;2022-10-22T06:25:39;25.23;;;13.80;;
6209;SDS011;3138;52.550;13.148;2022-10-22T06:28:05;17.53;;;13.87;;
6209;SDS011;3138;52.550;13.148;2022-10-22T06:30:32;20.07;;;14.00;;
6209;SDS011;3138;52.550;13.148;2022-10-22T06:33:00;26.23;;;16.63;;
6209;SDS011;3138;52.550;13.148;2022-10-22T06:35:27;26.20;;;15.47;;
6209;SDS011;3138;52.550;13.148;2022-10-22T06:37:53;31.80;;;18.90;;
6209;SDS011;3138;52.550;13.148;2022-10-22T06:40:21;20.87;;;15.33;;
6209;SDS011;3138;52.550;13.148;2022-10-22T06:42:48;21.70;;;16.50;;
6209;SDS011;3138;52.550;13.148;2022-10-22T06:45:15;39.80;;;17.57;;
6209;SDS011;3138;52.550;13.148;2022-10-22T06:47:42;34.43;;;18.37;;
6209;SDS011;3138;52.550;13.148;2022-10-22T06:50:10;28.53;;;17.60;;
6209;SDS011;3138;52.550;13.148;2022-10-22T06:52:36;29.07;;;18.23;;
6209;SDS011;3138;52.550;13.148;2022-10-22T06:55:03;34.50;;;18.50;;
6209;SDS011;3138;52.550;13.148;2022-10-22T06:57:30;30.40;;;16.57;;
6209;SDS011;3138;52.550;13.148;2022-10-22T06:59:57;38.07;;;19.93;;
6209;SDS011;3138;52.550;13.148;2022-10-22T07:02:24;27.50;;;18.93;;
6209;SDS011;3138;52.550;13.148;2022-10-22T07:04:50;34.03;;;21.63;;
6209;SDS011;3138;52.550;13.148;2022-10-22T07:07:18;34.07;;;20.10;;
6209;SDS011;3138;52.550;13.148;2022-10-22T07:09:45;36.50;;;20.43;;
6209;SDS011;3138;52.550;13.148;2022-10-22T07:12:13;36.20;;;22.17;;
6209;SDS011;3138;52.550;13.148;2022-10-22T07:14:40;53.00;;;25.03;;
6209;SDS011;3138;52.550;13.148;2022-10-22T07:17:07;37.63;;;23.67;;
6209;SDS011;3138;52.550;13.148;2022-10-22T07:19:33;41.23;;;22.47;;
6209;SDS011;3138;52.550;13.148;2022-10-22T07:22:00;37.47;;;22.70;;
6209;SDS011;3138;52.550;13.148;2022-10-22T07:24:28;37.73;;;21.10;;
6209;SDS011;3138;52.550;13.148;2022-10-22T07:26:55;32.93;;;22.50;;
6209;SDS011;3138;52.550;13.148;2022-10-22T07:29:22;39.87;;;24.70;;
6209;SDS011;3138;52.550;13.148;2022-10-22T07:31:49;30.00;;;21.90;;
6209;SDS011;3138;52.550;13.148;2022-10-22T07:34:15;33.70;;;19.80;;
6209;SDS011;3138;52.550;13.148;2022-10-22T07:36:42;29.90;;;20.20;;
6209;SDS011;3138;52.550;13.148;2022-10-22T07:39:09;29.50;;;18.33;;
6209;SDS011;3138;52.550;13.148;2022-10-22T07:41:37;33.03;;;20.53;;
6209;SDS011;3138;52.550;13.148;2022-10-22T07:44:03;35.67;;;20.97;;
6209;SDS011;3138;52.550;13.148;2022-10-22T07:46:30;47.60;;;20.40;;
6209;SDS011;3138;52.550;13.148;2022-10-22T07:48:59;36.17;;;20.20;;
6209;SDS011;3138;52.550;13.148;2022-10-22T07:51:25;32.43;;;21.40;;
6209;SDS011;3138;52.550;13.148;2022-10-22T07:53:55;30.73;;;20.57;;
6209;SDS011;3138;52.550;13.148;2022-10-22T07:56:21;31.33;;;20.20;;
6209;SDS011;3138;52.550;13.148;2022-10-22T07:58:50;29.00;;;18.97;;
6209;SDS011;3138;52.550;13.148;2022-10-22T08:01:16;26.87;;;20.10;;
6209;SDS011;3138;52.550;13.148;2022-10-22T08:03:43;28.23;;;19.03;;
6209;SDS011;3138;52.550;13.148;2022-10-22T08:06:11;27.67;;;19.70;;
6209;SDS011;3138;52.550;13.148;2022-10-22T08:08:38;24.40;;;19.50;;
6209;SDS011;3138;52.550;13.148;2022-10-22T08:11:05;28.73;;;17.40;;
6209;SDS011;3138;52.550;13.148;2022-10-22T08:13:32;32.20;;;20.77;;
6209;SDS011;3138;52.550;13.148;2022-10-22T08:16:00;28.13;;;17.70;;
6209;SDS011;3138;52.550;13.148;2022-10-22T08:18:27;27.07;;;20.00;;
6209;SDS011;3138;52.550;13.148;2022-10-22T08:20:54;31.33;;;18.13;;
6209;SDS011;3138;52.550;13.148;2022-10-22T08:23:21;30.73;;;21.83;;
6209;SDS011;3138;52.550;13.148;2022-10-22T08:25:48;33.60;;;19.87;;
6209;SDS011;3138;52.550;13.148;2022-10-22T08:28:15;25.50;;;18.90;;
6209;SDS011;3138;52.550;13.148;2022-10-22T08:30:42;31.93;;;20.77;;
6209;SDS011;3138;52.550;13.148;2022-10-22T08:33:11;24.23;;;18.43;;
6209;SDS011;3138;52.550;13.148;2022-10-22T08:35:38;28.37;;;19.63;;
6209;SDS011;3138;52.550;13.148;2022-10-22T08:38:05;23.60;;;18.40;;
6209;SDS011;3138;52.550;13.148;2022-10-22T08:40:32;32.70;;;18.10;;
6209;SDS011;3138;52.550;13.148;2022-10-22T08:43:12;25.37;;;17.33;;
6209;SDS011;3138;52.550;13.148;2022-10-22T08:46:01;27.40;;;19.27;;
6209;SDS011;3138;52.550;13.148;2022-10-22T08:48:44;30.80;;;18.17;;
6209;SDS011;3138;52.550;13.148;2022-10-22T08:51:14;31.77;;;18.20;;
6209;SDS011;3138;52.550;13.148;2022-10-22T08:53:45;25.60;;;16.40;;
6209;SDS011;3138;52.550;13.148;2022-10-22T08:56:20;26.60;;;18.17;;
6209;SDS011;3138;52.550;13.148;2022-10-22T08:58:48;30.07;;;19.30;;
6209;SDS011;3138;52.550;13.148;2022-10-22T09:01:23;25.23;;;17.77;;
6209;SDS011;3138;52.550;13.148;2022-10-22T09:03:59;31.80;;;18.10;;
6209;SDS011;3138;52.550;13.148;2022-10-22T09:06:32;28.80;;;17.93;;
6209;SDS011;3138;52.550;13.148;2022-10-22T09:09:08;21.67;;;17.20;;
6209;SDS011;3138;52.550;13.148;2022-10-22T09:11:38;26.10;;;18.37;;
6209;SDS011;3138;52.550;13.148;2022-10-22T09:14:08;30.30;;;18.87;;
6209;SDS011;3138;52.550;13.148;2022-10-22T09:16:42;27.40;;;18.87;;
6209;SDS011;3138;52.550;13.148;2022-10-22T09:19:23;24.20;;;16.73;;
6209;SDS011;3138;52.550;13.148;2022-10-22T09:21:57;30.40;;;18.63;;
6209;SDS011;3138;52.550;13.148;2022-10-22T09:24:35;29.40;;;18.90;;
6209;SDS011;3138;52.550;13.148;2022-10-22T09:27:07;23.27;;;17.13;;
6209;SDS011;3138;52.550;13.148;2022-10-22T09:29:37;22.23;;;16.97;;
6209;SDS011;3138;52.550;13.148;2022-10-22T09:32:04;23.43;;;17.40;;
6209;SDS011;3138;52.550;13.148;2022-10-22T09:34:32;25.27;;;17.73;;
6209;SDS011;3138;52.550;13.148;2022-10-22T09:37:00;24.63;;;17.43;;
6209;SDS011;3138;52.550;13.148;2022-10-22T09:39:28;28.97;;;17.70;;
6209;SDS011;3138;52.550;13.148;2022-10-22T09:41:58;18.67;;;15.67;;
6209;SDS011;3138;52.550;13.148;2022-10-22T09:44:25;24.47;;;17.20;;
6209;SDS011;3138;52.550;13.148;2022-10-22T09:46:51;27.90;;;17.20;;
6209;SDS011;3138;52.550;13.148;2022-10-22T09:49:19;24.33;;;18.03;;
6209;SDS011;3138;52.550;13.148;2022-10-22T09:51:50;22.73;;;17.33;;
6209;SDS011;3138;52.550;13.148;2022-10-22T09:54:19;45.00;;;17.57;;
6209;SDS011;3138;52.550;13.148;2022-10-22T09:56:52;26.90;;;16.97;;
6209;SDS011;3138;52.550;13.148;2022-10-22T09:59:25;24.70;;;18.07;;
6209;SDS011;3138;52.550;13.148;2022-10-22T10:02:01;34.47;;;18.60;;
6209;SDS011;3138;52.550;13.148;2022-10-22T10:04:32;24.00;;;17.37;;
6209;SDS011;3138;52.550;13.148;2022-10-22T10:07:02;27.17;;;17.67;;
6209;SDS011;3138;52.550;13.148;2022-10-22T10:09:29;24.40;;;16.60;;
6209;SDS011;3138;52.550;13.148;2022-10-22T10:12:03;22.67;;;17.80;;
6209;SDS011;3138;52.550;13.148;2022-10-22T10:14:40;24.93;;;18.40;;
6209;SDS011;3138;52.550;13.148;2022-10-22T10:17:15;29.43;;;16.53;;
6209;SDS011;3138;52.550;13.148;2022-10-22T10:19:59;22.30;;;17.03;;
6209;SDS011;3138;52.550;13.148;2022-10-22T10:22:40;25.70;;;15.80;;
6209;SDS011;3138;52.550;13.148;2022-10-22T10:28:12;25.13;;;15.10;;
6209;SDS011;3138;52.550;13.148;2022-10-22T10:30:50;20.57;;;16.83;;
6209;SDS011;3138;52.550;13.148;2022-10-22T10:33:27;24.53;;;16.10;;
6209;SDS011;3138;52.550;13.148;2022-10-22T10:36:03;22.50;;;15.43;;
6209;SDS011;3138;52.550;13.148;2022-10-22T10:38:40;23.33;;;14.80;;
6209;SDS011;3138;52.550;13.148;2022-10-22T10:41:16;21.80;;;15.00;;
6209;SDS011;3138;52.550;13.148;2022-10-22T10:43:56;19.40;;;14.77;;
6209;SDS011;3138;52.550;13.148;2022-10-22T10:46:32;22.60;;;15.77;;
6209;SDS011;3138;52.550;13.148;2022-10-22T10:49:07;38.13;;;27.50;;
6209;SDS011;3138;52.550;13.148;2022-10-22T10:51:36;21.93;;;16.00;;
6209;SDS011;3138;52.550;13.148;2022-10-22T10:54:15;19.47;;;15.90;;
6209;SDS011;3138;52.550;13.148;2022-10-22T10:56:51;20.17;;;15.73;;
6209;SDS011;3138;52.550;13.148;2022-10-22T10:59:25;25.80;;;12.83;;
6209;SDS011;3138;52.550;13.148;2022-10-22T11:02:30;22.90;;;13.57;;
6209;SDS011;3138;52.550;13.148;2022-10-22T11:05:16;18.23;;;12.93;;
6209;SDS011;3138;52.550;13.148;2022-10-22T11:07:51;17.23;;;12.30;;
6209;SDS011;3138;52.550;13.148;2022-10-22T11:10:26;24.60;;;12.37;;
6209;SDS011;3138;52.550;13.148;2022-10-22T11:12:56;19.67;;;12.90;;
6209;SDS011;3138;52.550;13.148;2022-10-22T11:15:30;18.77;;;12.87;;
6209;SDS011;3138;52.550;13.148;2022-10-22T11:18:00;17.77;;;14.37;;
6209;SDS011;3138;52.550;13.148;2022-10-22T11:20:38;21.93;;;14.50;;
6209;SDS011;3138;52.550;13.148;2022-10-22T11:23:11;19.30;;;14.73;;
6209;SDS011;3138;52.550;13.148;2022-10-22T11:25:43;22.10;;;13.47;;
6209;SDS011;3138;52.550;13.148;2022-10-22T11:28:13;27.67;;;13.47;;
6209;SDS011;3138;52.550;13.148;2022-10-22T11:30:42;18.83;;;12.80;;
6209;SDS011;3138;52.550;13.148;2022-10-22T11:33:14;17.63;;;12.20;;
6209;SDS011;3138;52.550;13.148;2022-10-22T11:35:44;25.90;;;13.33;;
6209;SDS011;3138;52.550;13.148;2022-10-22T11:38:13;16.57;;;11.50;;
6209;SDS011;3138;52.550;13.148;2022-10-22T11:40:45;21.13;;;12.50;;
6209;SDS011;3138;52.550;13.148;2022-10-22T11:43:24;18.20;;;12.33;;
6209;SDS011;3138;52.550;13.148;2022-10-22T11:45:55;15.90;;;10.63;;
6209;SDS011;3138;52.550;13.148;2022-10-22T11:48:26;18.93;;;12.40;;
6209;SDS011;3138;52.550;13.148;2022-10-22T11:51:00;25.70;;;10.73;;
6209;SDS011;3138;52.550;13.148;2022-10-22T11:53:29;15.47;;;9.90;;
6209;SDS011;3138;52.550;13.148;2022-10-22T11:56:02;15.40;;;10.57;;
6209;SDS011;3138;52.550;13.148;2022-10-22T11:58:46;20.97;;;10.57;;
6209;SDS011;3138;52.550;13.148;2022-10-22T12:01:19;18.50;;;9.57;;
6209;SDS011;3138;52.550;13.148;2022-10-22T12:06:50;24.93;;;9.07;;
6209;SDS011;3138;52.550;13.148;2022-10-22T12:09:22;17.10;;;8.77;;
6209;SDS011;3138;52.550;13.148;2022-10-22T12:11:51;15.90;;;8.60;;
6209;SDS011;3138;52.550;13.148;2022-10-22T12:14:20;12.20;;;8.00;;
6209;SDS011;3138;52.550;13.148;2022-10-22T12:16:51;10.97;;;7.90;;
6209;SDS011;3138;52.550;13.148;2022-10-22T12:19:23;17.53;;;8.23;;
6209;SDS011;3138;52.550;13.148;2022-10-22T12:21:57;23.60;;;7.47;;
6209;SDS011;3138;52.550;13.148;2022-10-22T12:24:28;7.50;;;5.60;;
6209;SDS011;3138;52.550;13.148;2022-10-22T12:26:59;17.23;;;7.53;;
6209;SDS011;3138;52.550;13.148;2022-10-22T12:29:25;10.80;;;7.30;;
6209;SDS011;3138;52.550;13.148;2022-10-22T12:31:52;11.30;;;7.60;;
6209;SDS011;3138;52.550;13.148;2022-10-22T12:34:20;13.63;;;6.20;;
6209;SDS011;3138;52.550;13.148;2022-10-22T12:36:49;16.20;;;7.63;;
6209;SDS011;3138;52.550;13.148;2022-10-22T12:39:18;7.00;;;6.30;;
6209;SDS011;3138;52.550;13.148;2022-10-22T12:41:46;10.90;;;6.57;;
6209;SDS011;3138;52.550;13.148;2022-10-22T12:44:15;20.37;;;7.17;;
6209;SDS011;3138;52.550;13.148;2022-10-22T12:46:43;11.63;;;6.60;;
6209;SDS011;3138;52.550;13.148;2022-10-22T12:49:13;13.00;;;6.10;;
6209;SDS011;3138;52.550;13.148;2022-10-22T12:51:44;10.53;;;5.10;;
6209;SDS011;3138;52.550;13.148;2022-10-22T12:54:21;13.80;;;5.80;;
6209;SDS011;3138;52.550;13.148;2022-10-22T12:56:50;8.23;;;5.00;;
6209;SDS011;3138;52.550;13.148;2022-10-22T12:59:20;20.37;;;5.50;;
6209;SDS011;3138;52.550;13.148;2022-10-22T13:01:49;11.50;;;4.63;;
6209;SDS011;3138;52.550;13.148;2022-10-22T13:04:18;11.03;;;5.07;;
6209;SDS011;3138;52.550;13.148;2022-10-22T13:07:05;8.67;;;4.90;;
6209;SDS011;3138;52.550;13.148;2022-10-22T13:09:42;8.10;;;4.60;;
6209;SDS011;3138;52.550;13.148;2022-10-22T13:12:10;6.40;;;4.50;;
6209;SDS011;3138;52.550;13.148;2022-10-22T13:14:42;11.93;;;4.27;;
6209;SDS011;3138;52.550;13.148;2022-10-22T13:17:11;13.17;;;4.83;;
6209;SDS011;3138;52.550;13.148;2022-10-22T13:19:41;12.33;;;4.47;;
6209;SDS011;3138;52.550;13.148;2022-10-22T13:22:27;11.60;;;5.10;;
6209;SDS011;3138;52.550;13.148;2022-10-22T13:24:56;10.63;;;4.30;;
6209;SDS011;3138;52.550;13.148;2022-10-22T13:27:24;16.30;;;4.00;;
6209;SDS011;3138;52.550;13.148;2022-10-22T13:29:53;10.90;;;4.10;;
6209;SDS011;3138;52.550;13.148;2022-10-22T13:32:24;22.47;;;4.47;;
6209;SDS011;3138;52.550;13.148;2022-10-22T13:34:55;11.93;;;4.47;;
6209;SDS011;3138;52.550;13.148;2022-10-22T13:37:23;12.43;;;4.00;;
6209;SDS011;3138;52.550;13.148;2022-10-22T13:39:51;7.40;;;3.63;;
6209;SDS011;3138;52.550;13.148;2022-10-22T13:42:17;13.77;;;3.80;;
6209;SDS011;3138;52.550;13.148;2022-10-22T13:44:44;11.27;;;3.70;;
6209;SDS011;3138;52.550;13.148;2022-10-22T13:47:23;11.43;;;3.47;;
6209;SDS011;3138;52.550;13.148;2022-10-22T13:49:51;8.90;;;3.70;;
6209;SDS011;3138;52.550;13.148;2022-10-22T13:52:23;7.00;;;3.20;;
6209;SDS011;3138;52.550;13.148;2022-10-22T13:54:59;9.30;;;3.80;;
6209;SDS011;3138;52.550;13.148;2022-10-22T13:57:25;17.50;;;4.33;;
6209;SDS011;3138;52.550;13.148;2022-10-22T13:59:52;25.67;;;3.80;;
6209;SDS011;3138;52.550;13.148;2022-10-22T14:02:20;17.87;;;3.87;;
6209;SDS011;3138;52.550;13.148;2022-10-22T14:04:48;10.73;;;3.53;;
6209;SDS011;3138;52.550;13.148;2022-10-22T14:07:16;13.47;;;4.20;;
6209;SDS011;3138;52.550;13.148;2022-10-22T14:09:43;15.23;;;3.03;;
6209;SDS011;3138;52.550;13.148;2022-10-22T14:12:11;11.97;;;4.10;;
6209;SDS011;3138;52.550;13.148;2022-10-22T14:14:38;10.17;;;3.93;;
6209;SDS011;3138;52.550;13.148;2022-10-22T14:17:07;11.70;;;3.93;;
6209;SDS011;3138;52.550;13.148;2022-10-22T14:19:41;12.07;;;3.60;;
6209;SDS011;3138;52.550;13.148;2022-10-22T14:22:10;13.97;;;3.13;;
6209;SDS011;3138;52.550;13.148;2022-10-22T14:24:38;11.53;;;3.33;;
6209;SDS011;3138;52.550;13.148;2022-10-22T14:27:05;13.07;;;3.53;;
6209;SDS011;3138;52.550;13.148;2022-10-22T14:29:33;12.00;;;3.00;;
6209;SDS011;3138;52.550;13.148;2022-10-22T14:32:00;8.03;;;3.10;;
6209;SDS011;3138;52.550;13.148;2022-10-22T14:34:27;15.97;;;4.60;;
6209;SDS011;3138;52.550;13.148;2022-10-22T14:36:55;14.77;;;4.03;;
6209;SDS011;3138;52.550;13.148;2022-10-22T14:39:21;12.90;;;3.17;;
6209;SDS011;3138;52.550;13.148;2022-10-22T14:41:48;15.63;;;4.20;;
6209;SDS011;3138;52.550;13.148;2022-10-22T14:44:15;10.03;;;3.00;;
6209;SDS011;3138;52.550;13.148;2022-10-22T14:46:41;7.90;;;2.80;;
6209;SDS011;3138;52.550;13.148;2022-10-22T14:49:09;25.50;;;3.80;;
6209;SDS011;3138;52.550;13.148;2022-10-22T14:51:35;17.83;;;3.20;;
6209;SDS011;3138;52.550;13.148;2022-10-22T14:54:04;12.40;;;3.50;;
6209;SDS011;3138;52.550;13.148;2022-10-22T14:56:30;9.60;;;3.50;;
6209;SDS011;3138;52.550;13.148;2022-10-22T14:58:57;11.77;;;3.73;;